Time;durP1;ratioP1;P1;durP2;ratioP2;P2;SDS_P1;SDS_P2;PMS_P1;PMS_P2;Temp;Humidity;BMP_temperature;BMP_pressure;BME280_temperature;BME280_humidity;BME280_pressure;Samples;Min_cycle;Max_cycle;Signal;HPM_P1;HPM_P2
2022/11/14 00:01:06;;;;;;;;;;;26.30;95.90;;;;;;5081315;28;20197;-46
2022/11/14 00:03:32;;;;;;;;;;;26.30;96.00;;;;;;5058436;28;19913;-43
2022/11/14 00:05:59;;;;;;;;;;;26.20;96.10;;;;;;5073129;28;19912;-41
2022/11/14 00:08:25;;;;;;;;;;;26.20;96.10;;;;;;5075230;28;20208;-45
2022/11/14 00:10:51;;;;;;;;;;;26.10;96.10;;;;;;5068648;28;19912;-40
2022/11/14 00:13:19;;;;;;;;;;;26.20;96.10;;;;;;5079625;28;19936;-40
2022/11/14 00:15:49;;;;;;;;;;;26.20;96.00;;;;;;5075092;28;19919;-43
2022/11/14 00:18:16;;;;;;;;;;;26.20;96.00;;;;;;5077626;28;19904;-39
2022/11/14 00:20:42;;;;;;;;;;;26.20;96.00;;;;;;5071255;28;20231;-37
2022/11/14 00:23:08;;;;;;;;;;;26.20;96.00;;;;;;5071427;28;19970;-40
2022/11/14 00:25:34;;;;;;;;;;;26.20;96.10;;;;;;5073418;28;20219;-41
2022/11/14 00:28:00;;;;;;;;;;;26.10;96.10;;;;;;5072027;28;20344;-50
2022/11/14 00:30:27;;;;;;;;;;;26.10;96.20;;;;;;5072979;28;19912;-51
2022/11/14 00:32:53;;;;;;;;;;;26.10;96.20;;;;;;5073245;28;19904;-42
2022/11/14 00:35:19;;;;;;;;;;;26.10;96.30;;;;;;5073499;28;19920;-46
2022/11/14 00:37:45;;;;;;;;;;;26.10;96.40;;;;;;5073045;28;20090;-38
2022/11/14 00:40:13;;;;;;;;;;;26.10;96.20;;;;;;5071112;28;19978;-49
2022/11/14 00:42:39;;;;;;;;;;;26.10;96.10;;;;;;5071593;28;19913;-42
2022/11/14 00:45:05;;;;;;;;;;;26.10;96.10;;;;;;5072813;28;19940;-47
2022/11/14 00:47:31;;;;;;;;;;;26.10;96.10;;;;;;5074797;28;19948;-45
2022/11/14 00:49:58;;;;;;;;;;;26.10;96.20;;;;;;5075295;28;19909;-49
2022/11/14 00:52:24;;;;;;;;;;;26.10;96.10;;;;;;5068843;28;19994;-52
2022/11/14 00:54:50;;;;;;;;;;;26.10;96.20;;;;;;5074702;28;19975;-45
2022/11/14 00:57:16;;;;;;;;;;;26.20;96.10;;;;;;5076365;28;19980;-42
2022/11/14 00:59:42;;;;;;;;;;;26.20;96.00;;;;;;5076404;28;19916;-54
2022/11/14 01:02:08;;;;;;;;;;;26.20;96.10;;;;;;5076104;28;19979;-46
2022/11/14 01:04:34;;;;;;;;;;;26.10;96.00;;;;;;5076666;28;19909;-42
2022/11/14 01:07:01;;;;;;;;;;;26.10;95.90;;;;;;5077844;28;19936;-40
2022/11/14 01:09:27;;;;;;;;;;;26.10;95.80;;;;;;5079769;28;19904;-40
2022/11/14 01:11:53;;;;;;;;;;;26.10;95.70;;;;;;5078861;28;19983;-51
2022/11/14 01:14:20;;;;;;;;;;;26.10;95.60;;;;;;5075165;28;19976;-59
2022/11/14 01:16:46;;;;;;;;;;;26.10;95.60;;;;;;5084844;28;19913;-59
2022/11/14 01:19:12;;;;;;;;;;;26.20;95.60;;;;;;5087233;28;20279;-43
2022/11/14 01:21:38;;;;;;;;;;;26.20;95.30;;;;;;5086905;28;19916;-46
2022/11/14 01:24:05;;;;;;;;;;;26.20;95.30;;;;;;5086910;28;19987;-51
2022/11/14 01:26:31;;;;;;;;;;;26.30;95.10;;;;;;5086860;28;20232;-44
2022/11/14 01:28:57;;;;;;;;;;;26.30;95.10;;;;;;5086967;28;19983;-56
2022/11/14 01:31:24;;;;;;;;;;;26.30;94.90;;;;;;5086671;28;19950;-49
2022/11/14 01:33:52;;;;;;;;;;;26.30;95.00;;;;;;5086944;28;19913;-50
2022/11/14 01:36:18;;;;;;;;;;;26.30;95.00;;;;;;5068650;28;19913;-53
2022/11/14 01:38:44;;;;;;;;;;;26.30;94.90;;;;;;5086728;28;20163;-45
2022/11/14 01:41:15;;;;;;;;;;;26.30;94.80;;;;;;5086349;28;20103;-43
2022/11/14 01:43:41;;;;;;;;;;;26.30;94.70;;;;;;5086635;28;19912;-43
2022/11/14 01:46:10;;;;;;;;;;;26.30;94.70;;;;;;5086302;28;20000;-42
2022/11/14 01:48:49;;;;;;;;;;;26.30;94.80;;;;;;5086748;28;19912;-45
2022/11/14 01:51:24;;;;;;;;;;;26.30;94.60;;;;;;5086362;28;20140;-45
2022/11/14 01:53:53;;;;;;;;;;;26.30;94.70;;;;;;5068181;28;19973;-52
2022/11/14 01:56:36;;;;;;;;;;;26.30;94.60;;;;;;5086222;28;20082;-54
2022/11/14 01:59:05;;;;;;;;;;;26.30;94.60;;;;;;5086173;28;19909;-53
2022/11/14 02:01:34;;;;;;;;;;;26.30;94.70;;;;;;5086226;28;20254;-50
2022/11/14 02:04:01;;;;;;;;;;;26.30;94.60;;;;;;5086368;28;19909;-54
2022/11/14 02:06:28;;;;;;;;;;;26.30;94.80;;;;;;5086018;28;19962;-48
2022/11/14 02:08:55;;;;;;;;;;;26.30;94.50;;;;;;5086329;28;19916;-43
2022/11/14 02:11:21;;;;;;;;;;;26.30;94.50;;;;;;5086021;28;19912;-46
2022/11/14 02:13:48;;;;;;;;;;;26.30;94.40;;;;;;5085605;28;19908;-47
2022/11/14 02:16:14;;;;;;;;;;;26.30;94.50;;;;;;5085874;28;19917;-46
2022/11/14 02:18:42;;;;;;;;;;;26.30;94.50;;;;;;5086093;28;19992;-46
2022/11/14 02:21:08;;;;;;;;;;;26.40;94.40;;;;;;5085624;28;20223;-44
2022/11/14 02:23:34;;;;;;;;;;;26.30;94.50;;;;;;5085800;28;19908;-44
2022/11/14 02:26:00;;;;;;;;;;;26.30;94.30;;;;;;5085621;28;19913;-52
2022/11/14 02:28:26;;;;;;;;;;;26.30;94.40;;;;;;5085563;28;19916;-44
2022/11/14 02:30:53;;;;;;;;;;;26.30;94.30;;;;;;5085517;28;19956;-50
2022/11/14 02:33:19;;;;;;;;;;;26.30;94.40;;;;;;5085562;28;19913;-45
2022/11/14 02:35:45;;;;;;;;;;;26.30;94.40;;;;;;5067415;28;19940;-46
2022/11/14 02:38:12;;;;;;;;;;;26.30;94.20;;;;;;5085414;28;19916;-53
2022/11/14 02:40:38;;;;;;;;;;;26.30;94.10;;;;;;5085513;28;19912;-59
2022/11/14 02:43:05;;;;;;;;;;;26.30;94.10;;;;;;5085068;28;19919;-60
2022/11/14 02:45:31;;;;;;;;;;;26.30;94.00;;;;;;5085396;28;19916;-45
2022/11/14 02:47:57;;;;;;;;;;;26.30;93.80;;;;;;5085195;28;19909;-50
2022/11/14 02:50:23;;;;;;;;;;;26.30;93.80;;;;;;5085089;28;19919;-58
2022/11/14 02:52:50;;;;;;;;;;;26.30;93.80;;;;;;5084933;28;19925;-43
2022/11/14 02:55:16;;;;;;;;;;;26.30;93.90;;;;;;5085371;28;19920;-48
2022/11/14 02:57:43;;;;;;;;;;;26.30;93.80;;;;;;5085079;28;19915;-46
2022/11/14 03:00:09;;;;;;;;;;;26.30;93.80;;;;;;5085432;28;19942;-45
2022/11/14 03:02:35;;;;;;;;;;;26.30;93.70;;;;;;5085072;28;20113;-49
2022/11/14 03:05:01;;;;;;;;;;;26.30;93.80;;;;;;5085367;28;19954;-52
2022/11/14 03:07:28;;;;;;;;;;;26.30;93.70;;;;;;5084773;28;19913;-43
2022/11/14 03:09:54;;;;;;;;;;;26.30;93.80;;;;;;5085339;28;19915;-43
2022/11/14 03:12:20;;;;;;;;;;;26.30;93.70;;;;;;5066942;28;19915;-42
2022/11/14 03:14:46;;;;;;;;;;;26.30;93.70;;;;;;5085021;28;19909;-51
2022/11/14 03:17:12;;;;;;;;;;;26.30;93.80;;;;;;5084722;28;19987;-46
2022/11/14 03:19:38;;;;;;;;;;;26.30;94.00;;;;;;5084992;28;19908;-53
2022/11/14 03:22:05;;;;;;;;;;;26.30;94.10;;;;;;5084483;28;20193;-47
2022/11/14 03:24:31;;;;;;;;;;;26.30;94.00;;;;;;5084321;28;19909;-47
2022/11/14 03:26:57;;;;;;;;;;;26.30;93.80;;;;;;5084621;28;20196;-50
2022/11/14 03:29:23;;;;;;;;;;;26.30;93.80;;;;;;5084786;28;19909;-51
2022/11/14 03:31:49;;;;;;;;;;;26.30;93.70;;;;;;5084603;28;19957;-47
2022/11/14 03:34:15;;;;;;;;;;;26.30;93.70;;;;;;5084771;28;19908;-48
2022/11/14 03:36:41;;;;;;;;;;;26.30;93.60;;;;;;5084321;28;19979;-45
2022/11/14 03:39:08;;;;;;;;;;;26.20;93.50;;;;;;5084619;28;19964;-48
2022/11/14 03:41:34;;;;;;;;;;;26.20;93.80;;;;;;5084311;28;19913;-48
2022/11/14 03:44:00;;;;;;;;;;;26.20;94.00;;;;;;5084541;28;19908;-50
2022/11/14 03:46:26;;;;;;;;;;;26.20;93.90;;;;;;5084237;28;19912;-48
2022/11/14 03:48:52;;;;;;;;;;;26.20;93.90;;;;;;5084480;28;19927;-44
2022/11/14 03:51:18;;;;;;;;;;;26.20;93.80;;;;;;5084356;28;19991;-51
2022/11/14 03:53:44;;;;;;;;;;;26.20;93.80;;;;;;5084136;28;19916;-53
2022/11/14 03:56:13;;;;;;;;;;;26.20;93.80;;;;;;5083431;28;20143;-44
2022/11/14 03:58:39;;;;;;;;;;;26.20;94.00;;;;;;5084344;28;19940;-56
2022/11/14 04:01:05;;;;;;;;;;;26.20;94.10;;;;;;5084069;28;19916;-49
2022/11/14 04:03:32;;;;;;;;;;;26.20;94.00;;;;;;5084250;28;20184;-48
2022/11/14 04:05:58;;;;;;;;;;;26.20;94.00;;;;;;5084178;28;19920;-49
2022/11/14 04:08:24;;;;;;;;;;;26.20;94.10;;;;;;5084119;28;20089;-49
2022/11/14 04:10:50;;;;;;;;;;;26.20;94.20;;;;;;5084121;28;20207;-46
2022/11/14 04:13:16;;;;;;;;;;;26.20;94.30;;;;;;5084190;28;19912;-47
2022/11/14 04:15:42;;;;;;;;;;;26.10;94.40;;;;;;5083995;28;19913;-50
2022/11/14 04:18:08;;;;;;;;;;;26.10;94.10;;;;;;5084131;28;20038;-54
2022/11/14 04:20:35;;;;;;;;;;;26.10;94.30;;;;;;5084074;28;19912;-50
2022/11/14 04:23:01;;;;;;;;;;;26.10;94.10;;;;;;5083824;28;20196;-49
2022/11/14 04:25:27;;;;;;;;;;;26.10;94.30;;;;;;5084090;28;19979;-50
2022/11/14 04:27:53;;;;;;;;;;;26.10;94.30;;;;;;5083861;28;19908;-47
2022/11/14 04:30:19;;;;;;;;;;;26.10;94.30;;;;;;5083897;28;19913;-55
2022/11/14 04:32:47;;;;;;;;;;;26.00;94.30;;;;;;5083882;28;19908;-50
2022/11/14 04:35:13;;;;;;;;;;;26.00;94.40;;;;;;5084420;28;19920;-49
2022/11/14 04:37:39;;;;;;;;;;;26.00;94.20;;;;;;5087740;28;19905;-50
2022/11/14 04:40:06;;;;;;;;;;;26.00;94.20;;;;;;5088097;28;19908;-49
2022/11/14 04:42:32;;;;;;;;;;;26.00;94.20;;;;;;5087464;28;19924;-50
2022/11/14 04:44:58;;;;;;;;;;;26.10;94.40;;;;;;5087988;28;19909;-53
2022/11/14 04:47:24;;;;;;;;;;;26.00;94.30;;;;;;5087482;28;19943;-53
2022/11/14 04:49:50;;;;;;;;;;;26.00;94.20;;;;;;5087913;28;20070;-51
2022/11/14 04:52:16;;;;;;;;;;;26.00;94.10;;;;;;5087303;28;19948;-48
2022/11/14 04:54:42;;;;;;;;;;;26.00;94.20;;;;;;5087645;28;19908;-47
2022/11/14 04:57:09;;;;;;;;;;;26.00;94.30;;;;;;5088307;28;19934;-48
2022/11/14 04:59:35;;;;;;;;;;;26.00;94.40;;;;;;5087697;28;19909;-46
2022/11/14 05:02:01;;;;;;;;;;;26.00;94.30;;;;;;5087082;28;19912;-45
2022/11/14 05:04:27;;;;;;;;;;;26.00;94.40;;;;;;5087449;28;19908;-42
2022/11/14 05:06:53;;;;;;;;;;;25.90;94.40;;;;;;5087133;28;19920;-48
2022/11/14 05:09:19;;;;;;;;;;;25.90;94.30;;;;;;5087245;28;19952;-49
2022/11/14 05:11:46;;;;;;;;;;;25.90;94.40;;;;;;5087028;28;19935;-49
2022/11/14 05:14:12;;;;;;;;;;;25.90;94.50;;;;;;5087349;28;19967;-50
2022/11/14 05:16:38;;;;;;;;;;;25.90;94.50;;;;;;5086937;28;19913;-51
2022/11/14 05:19:04;;;;;;;;;;;25.90;94.50;;;;;;5087045;28;19915;-46
2022/11/14 05:21:30;;;;;;;;;;;25.90;94.50;;;;;;5086835;28;19920;-49
2022/11/14 05:23:56;;;;;;;;;;;25.90;94.60;;;;;;5087135;28;20174;-52
2022/11/14 05:26:22;;;;;;;;;;;25.80;94.80;;;;;;5086661;28;19908;-54
2022/11/14 05:28:48;;;;;;;;;;;25.80;94.90;;;;;;5086981;28;19966;-47
2022/11/14 05:31:17;;;;;;;;;;;25.80;94.50;;;;;;5086668;28;19913;-47
2022/11/14 05:33:44;;;;;;;;;;;25.90;94.50;;;;;;5086753;28;19975;-50
2022/11/14 05:36:12;;;;;;;;;;;25.90;94.50;;;;;;5086811;28;20096;-49
2022/11/14 05:38:38;;;;;;;;;;;25.80;94.40;;;;;;5086675;28;19916;-56
2022/11/14 05:41:08;;;;;;;;;;;25.80;94.50;;;;;;5086329;28;19950;-54
2022/11/14 05:43:34;;;;;;;;;;;25.80;94.30;;;;;;5086513;28;20181;-51
2022/11/14 05:46:04;;;;;;;;;;;25.80;94.20;;;;;;5086414;28;19912;-42
2022/11/14 05:48:31;;;;;;;;;;;25.80;94.30;;;;;;5085680;28;19953;-47
2022/11/14 05:50:58;;;;;;;;;;;25.80;94.30;;;;;;5086587;28;19913;-47
2022/11/14 05:53:25;;;;;;;;;;;25.70;94.40;;;;;;5086457;28;19916;-51
2022/11/14 05:55:51;;;;;;;;;;;25.70;94.40;;;;;;5086064;28;19915;-53
2022/11/14 05:58:17;;;;;;;;;;;25.70;94.40;;;;;;5086285;28;19957;-54
2022/11/14 06:00:44;;;;;;;;;;;25.80;94.60;;;;;;5086281;28;20022;-55
2022/11/14 06:03:10;;;;;;;;;;;25.70;94.60;;;;;;5085980;28;19912;-50
2022/11/14 06:05:36;;;;;;;;;;;25.70;94.60;;;;;;5086106;28;19912;-51
2022/11/14 06:08:03;;;;;;;;;;;25.70;94.60;;;;;;5086044;28;19905;-50
2022/11/14 06:10:29;;;;;;;;;;;25.70;94.60;;;;;;5085813;28;19912;-58
2022/11/14 06:12:55;;;;;;;;;;;25.70;94.60;;;;;;5085921;28;19950;-52
2022/11/14 06:15:21;;;;;;;;;;;25.70;94.50;;;;;;5085949;28;19919;-51
2022/11/14 06:17:47;;;;;;;;;;;25.70;94.40;;;;;;5085703;28;19908;-52
2022/11/14 06:20:14;;;;;;;;;;;25.70;94.30;;;;;;5085888;28;19913;-51
2022/11/14 06:22:41;;;;;;;;;;;25.70;94.20;;;;;;5085699;28;19920;-51
2022/11/14 06:25:08;;;;;;;;;;;25.70;94.20;;;;;;5086051;28;19909;-45
2022/11/14 06:27:34;;;;;;;;;;;25.70;94.00;;;;;;5085666;28;19909;-41
2022/11/14 06:30:00;;;;;;;;;;;25.70;94.00;;;;;;5086050;28;19909;-47
2022/11/14 06:32:26;;;;;;;;;;;25.70;93.90;;;;;;5085545;28;19913;-51
2022/11/14 06:34:52;;;;;;;;;;;25.70;93.90;;;;;;5085932;28;19982;-47
2022/11/14 06:37:18;;;;;;;;;;;25.70;94.00;;;;;;5085422;28;19952;-41
2022/11/14 06:39:45;;;;;;;;;;;25.70;94.10;;;;;;5085772;28;19912;-46
2022/11/14 06:42:11;;;;;;;;;;;25.70;94.10;;;;;;5085062;28;19917;-50
2022/11/14 06:44:37;;;;;;;;;;;25.60;93.90;;;;;;5085655;28;19912;-48
2022/11/14 06:47:03;;;;;;;;;;;25.60;94.10;;;;;;5085233;28;19912;-51
2022/11/14 06:49:29;;;;;;;;;;;25.60;94.20;;;;;;5085354;28;19906;-42
2022/11/14 06:51:55;;;;;;;;;;;25.60;94.20;;;;;;5084956;28;20006;-45
2022/11/14 06:54:21;;;;;;;;;;;25.50;94.30;;;;;;5085407;28;19920;-46
2022/11/14 06:56:47;;;;;;;;;;;25.60;94.40;;;;;;5084905;28;19908;-49
2022/11/14 06:59:13;;;;;;;;;;;25.50;94.50;;;;;;5084203;28;19908;-46
2022/11/14 07:01:40;;;;;;;;;;;25.50;94.30;;;;;;5084776;28;20167;-57
2022/11/14 07:04:06;;;;;;;;;;;25.50;94.40;;;;;;5085047;28;19905;-46
2022/11/14 07:06:32;;;;;;;;;;;25.50;94.60;;;;;;5084982;28;19951;-51
2022/11/14 07:08:58;;;;;;;;;;;25.50;94.50;;;;;;5085014;28;19940;-49
2022/11/14 07:11:28;;;;;;;;;;;25.50;94.60;;;;;;5084799;28;19912;-51
2022/11/14 07:14:01;;;;;;;;;;;25.40;94.40;;;;;;5084828;28;19908;-51
2022/11/14 07:16:29;;;;;;;;;;;25.40;94.50;;;;;;5084765;28;19912;-50
2022/11/14 07:18:56;;;;;;;;;;;25.40;94.60;;;;;;5084550;28;19985;-47
2022/11/14 07:21:23;;;;;;;;;;;25.30;94.40;;;;;;5084406;28;19912;-49
2022/11/14 07:23:49;;;;;;;;;;;25.40;94.50;;;;;;5084831;28;19905;-49
2022/11/14 07:26:15;;;;;;;;;;;25.30;94.40;;;;;;5084279;28;20018;-44
2022/11/14 07:28:42;;;;;;;;;;;25.30;94.40;;;;;;5084711;28;19943;-49
2022/11/14 07:31:11;;;;;;;;;;;25.40;94.60;;;;;;5084429;28;19916;-47
2022/11/14 07:33:38;;;;;;;;;;;25.40;94.70;;;;;;5084348;28;19989;-54
2022/11/14 07:36:04;;;;;;;;;;;25.40;94.80;;;;;;5066767;28;19912;-44
2022/11/14 07:38:31;;;;;;;;;;;25.40;94.80;;;;;;5084413;28;19931;-46
2022/11/14 07:40:59;;;;;;;;;;;25.30;94.80;;;;;;5084080;28;19912;-46
2022/11/14 07:43:25;;;;;;;;;;;25.30;95.10;;;;;;5084417;28;19912;-46
2022/11/14 07:45:51;;;;;;;;;;;25.30;95.10;;;;;;5084209;28;19913;-41
2022/11/14 07:48:17;;;;;;;;;;;25.20;95.10;;;;;;5084237;28;19951;-46
2022/11/14 07:50:43;;;;;;;;;;;25.20;95.20;;;;;;5084284;28;19913;-43
2022/11/14 07:53:10;;;;;;;;;;;25.20;95.20;;;;;;5084178;28;19939;-48
2022/11/14 07:55:36;;;;;;;;;;;25.20;95.50;;;;;;5084150;28;20172;-45
2022/11/14 07:58:02;;;;;;;;;;;25.20;95.30;;;;;;5084211;28;19917;-44
2022/11/14 08:00:28;;;;;;;;;;;25.20;95.40;;;;;;5084068;28;19979;-49
2022/11/14 08:02:55;;;;;;;;;;;25.10;95.40;;;;;;5084090;28;19916;-42
2022/11/14 08:05:21;;;;;;;;;;;25.10;95.50;;;;;;5083988;28;19912;-50
2022/11/14 08:07:50;;;;;;;;;;;25.10;95.50;;;;;;5084020;28;19909;-49
2022/11/14 08:10:17;;;;;;;;;;;25.10;95.70;;;;;;5085048;28;20281;-45
2022/11/14 08:12:44;;;;;;;;;;;25.10;95.60;;;;;;5088175;28;19908;-45
2022/11/14 08:15:11;;;;;;;;;;;25.10;95.50;;;;;;5088708;28;19908;-47
2022/11/14 08:17:37;;;;;;;;;;;25.00;95.40;;;;;;5088082;28;19957;-53
2022/11/14 08:20:04;;;;;;;;;;;25.10;95.50;;;;;;5088417;28;19909;-45
2022/11/14 08:22:30;;;;;;;;;;;25.00;95.40;;;;;;5088176;28;19912;-46
2022/11/14 08:24:56;;;;;;;;;;;25.00;95.50;;;;;;5088478;28;19908;-46
2022/11/14 08:27:22;;;;;;;;;;;25.00;95.50;;;;;;5087864;28;19936;-44
2022/11/14 08:29:50;;;;;;;;;;;25.00;95.60;;;;;;5088367;28;19909;-46
2022/11/14 08:32:19;;;;;;;;;;;25.00;95.50;;;;;;5087790;28;19912;-49
2022/11/14 08:34:46;;;;;;;;;;;25.00;95.30;;;;;;5087999;28;19909;-50
2022/11/14 08:37:12;;;;;;;;;;;25.00;95.10;;;;;;5087724;28;19919;-46
2022/11/14 08:39:38;;;;;;;;;;;25.00;95.20;;;;;;5087986;28;19916;-47
2022/11/14 08:42:04;;;;;;;;;;;25.00;95.40;;;;;;5087345;28;19917;-46
2022/11/14 08:44:30;;;;;;;;;;;25.00;95.20;;;;;;5088061;28;19954;-47
2022/11/14 08:46:59;;;;;;;;;;;25.00;95.10;;;;;;5087529;28;19955;-48
2022/11/14 08:49:25;;;;;;;;;;;25.00;95.20;;;;;;5069706;28;20082;-49
2022/11/14 08:51:52;;;;;;;;;;;24.90;95.20;;;;;;5087285;28;20120;-50
2022/11/14 08:54:18;;;;;;;;;;;24.90;95.10;;;;;;5087779;28;19916;-58
2022/11/14 08:56:44;;;;;;;;;;;24.90;95.00;;;;;;5087406;28;19949;-43
2022/11/14 08:59:11;;;;;;;;;;;24.90;95.20;;;;;;5087578;28;19904;-51
2022/11/14 09:01:37;;;;;;;;;;;24.90;95.20;;;;;;5087149;28;19921;-53
2022/11/14 09:04:03;;;;;;;;;;;24.90;95.20;;;;;;5087400;28;19909;-49
2022/11/14 09:06:29;;;;;;;;;;;24.90;95.20;;;;;;5087417;28;20208;-52
2022/11/14 09:08:56;;;;;;;;;;;24.90;95.30;;;;;;5087225;28;19908;-52
2022/11/14 09:11:23;;;;;;;;;;;24.90;95.40;;;;;;5087067;28;19909;-52
2022/11/14 09:13:49;;;;;;;;;;;24.90;95.50;;;;;;5087314;28;19917;-51
2022/11/14 09:16:15;;;;;;;;;;;24.90;95.70;;;;;;5087043;28;19935;-59
2022/11/14 09:18:41;;;;;;;;;;;24.90;95.70;;;;;;5087232;28;19909;-53
2022/11/14 09:21:07;;;;;;;;;;;24.90;95.50;;;;;;5086674;28;19988;-55
2022/11/14 09:23:34;;;;;;;;;;;24.90;95.80;;;;;;5086059;28;19922;-50
2022/11/14 09:26:07;;;;;;;;;;;24.90;95.60;;;;;;5086865;28;19912;-62
2022/11/14 09:28:33;;;;;;;;;;;24.90;95.60;;;;;;5086988;28;19983;-48
2022/11/14 09:31:00;;;;;;;;;;;24.90;95.70;;;;;;5086652;28;20011;-51
2022/11/14 09:33:27;;;;;;;;;;;24.90;95.70;;;;;;5086923;28;19908;-46
2022/11/14 09:35:57;;;;;;;;;;;24.90;95.90;;;;;;5086637;28;19975;-46
2022/11/14 09:38:23;;;;;;;;;;;24.90;96.10;;;;;;5086787;28;19915;-44
2022/11/14 09:41:15;;;;;;;;;;;24.90;95.90;;;;;;5086624;28;20025;-54
2022/11/14 09:43:49;;;;;;;;;;;25.00;95.80;;;;;;5082003;28;20077;-47
2022/11/14 09:46:22;;;;;;;;;;;25.10;95.60;;;;;;5086395;28;19920;-51
2022/11/14 09:48:50;;;;;;;;;;;25.10;95.80;;;;;;5086674;28;19908;-49
2022/11/14 09:51:21;;;;;;;;;;;25.10;95.80;;;;;;5086420;28;20112;-48
2022/11/14 09:54:20;;;;;;;;;;;25.10;95.60;;;;;;5086512;28;19966;-44
2022/11/14 09:56:46;;;;;;;;;;;25.10;95.50;;;;;;5024888;28;19927;-44
2022/11/14 09:59:13;;;;;;;;;;;25.10;95.50;;;;;;5086349;28;19950;-46
2022/11/14 10:01:42;;;;;;;;;;;25.10;95.50;;;;;;5085665;28;20223;-44
2022/11/14 10:04:16;;;;;;;;;;;25.10;95.60;;;;;;5068332;28;20214;-44
2022/11/14 10:06:49;;;;;;;;;;;25.10;95.60;;;;;;5086044;28;19918;-41
2022/11/14 10:09:27;;;;;;;;;;;25.10;95.80;;;;;;5086326;28;19904;-50
2022/11/14 10:12:12;;;;;;;;;;;25.10;95.70;;;;;;5085969;28;19920;-46
2022/11/14 10:14:47;;;;;;;;;;;25.10;95.90;;;;;;5086277;28;19908;-43
2022/11/14 10:17:33;;;;;;;;;;;25.10;95.90;;;;;;5085908;28;19918;-50
2022/11/14 10:20:11;;;;;;;;;;;25.10;95.60;;;;;;5086163;28;19904;-40
2022/11/14 10:22:39;;;;;;;;;;;25.10;95.70;;;;;;5085370;28;19916;-40
2022/11/14 10:25:24;;;;;;;;;;;25.10;95.70;;;;;;5086107;28;20054;-47
2022/11/14 10:27:56;;;;;;;;;;;25.10;95.80;;;;;;5085219;28;20018;-49
2022/11/14 10:30:22;;;;;;;;;;;25.10;95.70;;;;;;5085579;28;19913;-41
2022/11/14 10:32:57;;;;;;;;;;;25.10;95.60;;;;;;5085477;28;20204;-44
2022/11/14 10:35:44;;;;;;;;;;;25.10;95.70;;;;;;5065604;28;19920;-45
2022/11/14 10:38:25;;;;;;;;;;;25.10;95.50;;;;;;5081125;28;19909;-46
2022/11/14 10:40:58;;;;;;;;;;;25.10;95.50;;;;;;5085373;28;19971;-48
2022/11/14 10:43:36;;;;;;;;;;;25.10;95.40;;;;;;5085031;28;19943;-49
2022/11/14 10:46:04;;;;;;;;;;;25.20;95.30;;;;;;5085638;28;19915;-51
2022/11/14 10:48:32;;;;;;;;;;;25.20;95.20;;;;;;5085482;28;20184;-50
2022/11/14 10:51:04;;;;;;;;;;;25.20;95.20;;;;;;5085151;28;19915;-48
2022/11/14 10:53:42;;;;;;;;;;;25.20;95.20;;;;;;5079414;28;19917;-45
2022/11/14 10:56:11;;;;;;;;;;;25.20;95.10;;;;;;5076106;28;19923;-45
2022/11/14 10:58:38;;;;;;;;;;;25.20;95.10;;;;;;5085125;28;19911;-44
2022/11/14 11:01:23;;;;;;;;;;;25.20;95.30;;;;;;5084906;28;20197;-46
2022/11/14 11:03:49;;;;;;;;;;;25.20;95.30;;;;;;5085224;28;19935;-43
2022/11/14 11:06:25;;;;;;;;;;;25.20;95.60;;;;;;5084865;28;19919;-49
2022/11/14 11:11:40;;;;;;;;;;;25.30;95.70;;;;;;5084820;28;19920;-48
2022/11/14 11:14:15;;;;;;;;;;;25.30;95.60;;;;;;5084927;28;19913;-45
2022/11/14 11:16:41;;;;;;;;;;;25.30;95.90;;;;;;5084599;28;19920;-40
2022/11/14 11:19:16;;;;;;;;;;;25.30;95.90;;;;;;5084993;28;19923;-45
2022/11/14 11:21:47;;;;;;;;;;;25.40;95.90;;;;;;5084796;28;19912;-41
2022/11/14 11:24:29;;;;;;;;;;;25.30;95.90;;;;;;5084915;28;19909;-42
2022/11/14 11:27:21;;;;;;;;;;;25.40;96.00;;;;;;5084710;28;19919;-41
2022/11/14 11:30:01;;;;;;;;;;;25.40;96.00;;;;;;5085189;28;19928;-44
2022/11/14 11:32:28;;;;;;;;;;;25.50;96.00;;;;;;5084617;28;19983;-44
2022/11/14 11:34:54;;;;;;;;;;;25.50;95.90;;;;;;5085245;28;19908;-43
2022/11/14 11:37:25;;;;;;;;;;;25.50;95.80;;;;;;5084804;28;19913;-39
2022/11/14 11:39:54;;;;;;;;;;;25.50;95.70;;;;;;5084942;28;19908;-47
2022/11/14 11:42:43;;;;;;;;;;;25.50;95.60;;;;;;5084562;28;19918;-42
2022/11/14 11:45:16;;;;;;;;;;;25.50;95.60;;;;;;5064443;28;19996;-49
2022/11/14 11:47:43;;;;;;;;;;;25.50;95.60;;;;;;5084586;28;19909;-42
2022/11/14 11:50:16;;;;;;;;;;;25.50;95.60;;;;;;5084304;28;19909;-44
2022/11/14 11:52:58;;;;;;;;;;;25.50;95.70;;;;;;5092315;28;19920;-40
2022/11/14 11:55:26;;;;;;;;;;;25.50;95.70;;;;;;5104795;28;19912;-48
2022/11/14 11:58:05;;;;;;;;;;;25.50;95.70;;;;;;5104327;28;19904;-49
2022/11/14 12:00:32;;;;;;;;;;;25.50;95.80;;;;;;5104405;28;20112;-44
2022/11/14 12:02:59;;;;;;;;;;;25.50;95.80;;;;;;5086638;28;19913;-50
2022/11/14 12:05:25;;;;;;;;;;;25.50;95.90;;;;;;5104368;28;19916;-48
2022/11/14 12:07:59;;;;;;;;;;;25.50;96.00;;;;;;5104257;28;19904;-51
2022/11/14 12:10:29;;;;;;;;;;;25.50;96.00;;;;;;5090583;28;19920;-49
2022/11/14 12:13:04;;;;;;;;;;;25.50;96.10;;;;;;5084147;28;19911;-47
2022/11/14 12:15:54;;;;;;;;;;;25.50;96.10;;;;;;5084117;28;19912;-41
2022/11/14 12:18:40;;;;;;;;;;;25.50;96.10;;;;;;5084113;28;19968;-40
2022/11/14 12:21:11;;;;;;;;;;;25.50;96.10;;;;;;5083994;28;19920;-45
2022/11/14 12:23:57;;;;;;;;;;;25.50;96.20;;;;;;5084015;28;19975;-41
2022/11/14 12:26:32;;;;;;;;;;;25.50;96.20;;;;;;5084007;28;19943;-39
2022/11/14 12:29:16;;;;;;;;;;;25.50;96.40;;;;;;5084114;28;20124;-46
2022/11/14 12:31:43;;;;;;;;;;;25.60;96.60;;;;;;5084222;28;19945;-46
2022/11/14 12:34:24;;;;;;;;;;;25.50;96.80;;;;;;5084346;28;19936;-45
2022/11/14 12:36:50;;;;;;;;;;;25.50;97.00;;;;;;5083705;28;19935;-43
2022/11/14 12:39:21;;;;;;;;;;;25.40;97.20;;;;;;5084211;28;19912;-44
2022/11/14 12:41:47;;;;;;;;;;;25.40;97.20;;;;;;5083783;28;19913;-48
2022/11/14 12:44:26;;;;;;;;;;;25.40;97.20;;;;;;5083883;28;19916;-43
2022/11/14 12:47:04;;;;;;;;;;;25.40;97.20;;;;;;5083712;28;20215;-52
2022/11/14 12:49:49;;;;;;;;;;;25.40;97.10;;;;;;5084017;28;19909;-41
2022/11/14 12:52:33;;;;;;;;;;;25.50;97.00;;;;;;5079573;28;19984;-41
2022/11/14 12:54:59;;;;;;;;;;;25.40;96.90;;;;;;5063583;28;19909;-48
2022/11/14 12:57:48;;;;;;;;;;;25.40;97.10;;;;;;5066311;28;20247;-38
2022/11/14 13:00:16;;;;;;;;;;;25.40;97.10;;;;;;5067356;28;19920;-41
2022/11/14 13:03:09;;;;;;;;;;;25.40;97.20;;;;;;5067252;28;19980;-48
2022/11/14 13:05:57;;;;;;;;;;;25.30;97.20;;;;;;5029209;28;19917;-46
2022/11/14 13:08:35;;;;;;;;;;;25.30;97.30;;;;;;5067273;28;19905;-47
2022/11/14 13:21:44;;;;;;;;;;;25.30;97.40;;;;;;5067120;28;19913;-42
2022/11/14 13:22:43;;;;;;;;;;;25.40;97.50;;;;;;5066917;28;19924;-45
2022/11/14 13:25:09;;;;;;;;;;;25.50;97.50;;;;;;5067274;28;19955;-46
2022/11/14 13:27:36;;;;;;;;;;;25.50;97.50;;;;;;5066920;28;19980;-44
2022/11/14 13:30:06;;;;;;;;;;;25.50;97.40;;;;;;5067411;28;20235;-44
2022/11/14 13:32:41;;;;;;;;;;;25.50;97.40;;;;;;5066698;28;19960;-43
2022/11/14 13:35:34;;;;;;;;;;;25.50;97.40;;;;;;5067220;28;19950;-45
2022/11/14 13:38:06;;;;;;;;;;;25.60;97.40;;;;;;5061256;28;19909;-43
2022/11/14 13:40:36;;;;;;;;;;;25.60;97.30;;;;;;5066622;28;20172;-48
2022/11/14 13:43:02;;;;;;;;;;;25.60;97.40;;;;;;5066310;28;19908;-41
2022/11/14 13:45:48;;;;;;;;;;;25.70;97.40;;;;;;5066549;28;19912;-42
2022/11/14 13:48:22;;;;;;;;;;;25.70;97.50;;;;;;5066363;28;19905;-48
2022/11/14 13:50:50;;;;;;;;;;;25.70;97.30;;;;;;5066405;28;19912;-43
2022/11/14 13:53:23;;;;;;;;;;;25.70;97.30;;;;;;5079031;28;19931;-46
2022/11/14 13:55:54;;;;;;;;;;;25.70;97.40;;;;;;5086205;28;19913;-49
2022/11/14 13:58:27;;;;;;;;;;;25.70;97.30;;;;;;5086586;28;19904;-45
2022/11/14 14:00:53;;;;;;;;;;;25.70;97.20;;;;;;5086129;28;19913;-44
2022/11/14 14:03:39;;;;;;;;;;;25.70;97.10;;;;;;5086041;28;19912;-41
2022/11/14 14:06:24;;;;;;;;;;;25.80;97.10;;;;;;5085946;28;19913;-48
2022/11/14 14:08:53;;;;;;;;;;;25.80;97.10;;;;;;5085627;28;19915;-49
2022/11/14 14:11:28;;;;;;;;;;;25.80;97.10;;;;;;5086209;28;20220;-49
2022/11/14 14:14:31;;;;;;;;;;;25.80;97.10;;;;;;5086157;28;20074;-43
2022/11/14 14:17:03;;;;;;;;;;;25.80;97.10;;;;;;5004774;28;19921;-48
2022/11/14 14:19:38;;;;;;;;;;;25.80;97.00;;;;;;5074109;28;19912;-45
2022/11/14 14:22:04;;;;;;;;;;;25.90;97.00;;;;;;5085701;28;19924;-44
2022/11/14 14:24:30;;;;;;;;;;;25.90;96.90;;;;;;5086235;28;19908;-45
2022/11/14 14:27:09;;;;;;;;;;;25.90;96.80;;;;;;5085949;28;19908;-47
2022/11/14 14:29:35;;;;;;;;;;;25.90;96.80;;;;;;5085877;28;19958;-44
2022/11/14 14:32:27;;;;;;;;;;;25.90;96.60;;;;;;5085557;28;20108;-52
2022/11/14 14:34:57;;;;;;;;;;;25.90;96.50;;;;;;5064046;28;19908;-45
2022/11/14 14:37:24;;;;;;;;;;;25.90;96.40;;;;;;5085413;28;19910;-46
2022/11/14 14:39:58;;;;;;;;;;;25.90;96.50;;;;;;5085820;28;19940;-46